createdAt,value
2022-09-10T00:00:20.281Z,18.38
2022-09-10T00:22:06.235Z,18.15
2022-09-10T00:43:55.787Z,17.92
2022-09-10T01:05:44.098Z,17.97
2022-09-10T01:27:51.264Z,17.90
2022-09-10T01:49:47.551Z,18.03
2022-09-10T02:11:44.162Z,18.07
2022-09-10T02:33:31.258Z,18.09
2022-09-10T02:55:17.185Z,18.11
2022-09-10T03:17:03.612Z,17.86
2022-09-10T03:38:49.254Z,17.66
2022-09-10T04:00:35.417Z,17.76
2022-09-10T04:22:22.590Z,17.86
2022-09-10T04:44:09.361Z,17.83
2022-09-10T05:05:55.098Z,17.56
2022-09-10T05:27:41.862Z,17.65
2022-09-10T05:49:28.013Z,17.98
2022-09-10T06:11:13.976Z,18.23
2022-09-10T06:32:59.680Z,18.56
2022-09-10T06:54:45.453Z,18.78
2022-09-10T07:16:31.652Z,18.93
2022-09-10T07:38:17.584Z,19.79
2022-09-10T08:00:03.655Z,25.07
2022-09-10T08:21:49.909Z,32.35
2022-09-10T08:43:43.021Z,35.62
2022-09-10T09:05:29.880Z,33.77
2022-09-10T09:27:20.273Z,40.28
2022-09-10T09:49:07.210Z,37.81
2022-09-10T10:10:55.978Z,41.72
2022-09-10T10:32:45.929Z,45.47
2022-09-10T10:54:52.890Z,42.95
2022-09-10T11:16:46.063Z,49.06
2022-09-10T11:38:40.669Z,48.12
2022-09-10T12:00:27.118Z,41.58
2022-09-10T12:22:21.649Z,36.72
2022-09-10T12:44:46.913Z,31.18
2022-09-10T13:06:42.756Z,26.58
2022-09-10T13:29:05.334Z,24.63
2022-09-10T13:51:00.325Z,24.15
2022-09-10T14:12:46.961Z,24.18
2022-09-10T14:34:37.232Z,24.56
2022-09-10T14:56:26.626Z,25.03
2022-09-10T15:18:15.139Z,24.83
2022-09-10T15:40:01.396Z,24.71
2022-09-10T16:01:47.755Z,22.82
2022-09-10T16:23:36.114Z,21.86
2022-09-10T16:45:21.802Z,21.82
2022-09-10T17:07:07.803Z,21.33
2022-09-10T17:28:58.607Z,20.21
2022-09-10T17:50:49.250Z,19.48
2022-09-10T18:12:35.056Z,19.07
2022-09-10T18:34:24.181Z,18.55
2022-09-10T18:56:11.739Z,18.52
2022-09-10T19:17:57.640Z,18.44
2022-09-10T19:39:44.606Z,18.36
2022-09-10T20:01:32.658Z,18.34
2022-09-10T20:23:18.566Z,18.41
2022-09-10T20:45:04.343Z,18.33
2022-09-10T21:06:50.008Z,18.11
2022-09-10T21:28:35.758Z,17.93
2022-09-10T21:50:21.453Z,17.90
2022-09-10T22:12:07.423Z,17.71
2022-09-10T22:33:57.985Z,17.35
2022-09-10T22:55:43.651Z,17.26
2022-09-10T23:17:29.302Z,17.01
2022-09-10T23:39:17.971Z,16.79
